AWG-1

METAR EHLW TAF EHLW
4 °C
°C
-
°C
7m
Alter
13:31:59
LT
12:31
UTC
0 ft

1.000

2.000

3.000

4.000

5.000

VFR
<?= Yii::t('app', 'Wind direction') ?> <?= Yii::t('app', 'of'); ?>
170°
17:31
Sonne unter
81%
Luftfeuchtigkeit
Windscherung
Geschlossen/Schnee
RWY-Sichtweite
RWY Zustand
Vert. Sichtweite
Min. Sichtbarkeit
CAVOK
Trend
Korrektur
Besonderer Bericht
1040 hPa
QNH
METAR EHLW 071225Z AUTO 17007KT 140V210 9999 NCD 04/01 Q1040 BLU
Klar
0 kt
0 kt
13:00
VFR
4 kt
14:00
VFR
4 kt
15:00
VFR
4 kt
16:00
VFR
4 kt
17:00
VFR
4 kt
18:00
VFR
4 kt
19:00
VFR
4 kt
10 km+
Sichtweite
Keine
Wolkendecke
7 kt
Wind
metar-taf.com/EHMA

Metar-Taf.com

Visueller Decoder

Wir und Dritte verfolgen dein Internetverhalten auf unserer Website mit Cookies. Wenn du fortfährst, gehen wir davon aus, dass du mit unserer Cookie-Richtlinie einverstanden bist.